createdAt,value
2023-04-01T00:00:23.392Z,10.19
2023-04-01T00:01:24.003Z,10.19
2023-04-01T00:02:24.843Z,10.18
2023-04-01T00:03:25.444Z,10.18
2023-04-01T00:04:25.782Z,10.18
2023-04-01T00:05:26.278Z,10.17
2023-04-01T00:06:26.850Z,10.17
2023-04-01T00:06:35.528Z,9.37
2023-04-01T00:07:36.076Z,10.14
2023-04-01T00:08:36.635Z,10.13
2023-04-01T00:09:37.101Z,10.14
2023-04-01T00:10:37.694Z,10.13
2023-04-01T00:11:38.311Z,10.13
2023-04-01T00:12:38.904Z,10.13
2023-04-01T00:13:39.393Z,10.13
2023-04-01T00:14:39.914Z,10.13
2023-04-01T00:15:40.395Z,10.13
2023-04-01T00:16:41.022Z,10.12
2023-04-01T00:16:49.660Z,9.31
2023-04-01T00:17:50.148Z,10.09
2023-04-01T00:18:50.674Z,10.09
2023-04-01T00:19:51.197Z,10.09
2023-04-01T00:20:51.602Z,10.09
2023-04-01T00:21:52.216Z,10.09
2023-04-01T00:22:52.776Z,10.09
2023-04-01T00:23:53.405Z,10.08
2023-04-01T00:24:53.869Z,10.08
2023-04-01T00:25:54.363Z,10.08
2023-04-01T00:26:55.013Z,10.08
2023-04-01T00:27:55.567Z,10.08
2023-04-01T00:28:06.188Z,9.32
2023-04-01T00:29:06.667Z,10.05
2023-04-01T00:30:07.198Z,10.05
2023-04-01T00:31:07.570Z,10.05
2023-04-01T00:32:08.182Z,10.05
2023-04-01T00:33:08.789Z,10.05
2023-04-01T00:34:09.245Z,10.04
2023-04-01T00:35:09.812Z,10.04
2023-04-01T00:36:10.420Z,10.04
2023-04-01T00:37:11.111Z,10.04
2023-04-01T00:38:11.683Z,10.04
2023-04-01T00:38:21.312Z,9.38
2023-04-01T00:39:21.857Z,10.05
2023-04-01T00:40:22.323Z,10.05
2023-04-01T00:41:22.896Z,10.05
2023-04-01T00:42:23.375Z,10.05
2023-04-01T00:43:24.056Z,10.04
2023-04-01T00:44:25.567Z,10.04
2023-04-01T00:45:25.341Z,10.04
2023-04-01T00:46:26.020Z,10.05
2023-04-01T00:47:26.626Z,10.05
2023-04-01T00:48:27.217Z,10.05
2023-04-01T00:48:35.857Z,9.47
2023-04-01T00:49:36.261Z,10.07
2023-04-01T00:50:36.945Z,10.07
2023-04-01T00:51:37.481Z,10.07
2023-04-01T00:52:38.073Z,10.08
2023-04-01T00:53:38.798Z,10.08
2023-04-01T00:54:39.294Z,10.08
2023-04-01T00:55:39.888Z,10.08
2023-04-01T00:56:40.493Z,10.09
2023-04-01T00:57:41.157Z,10.09
2023-04-01T00:58:41.147Z,10.09
2023-04-01T00:59:41.815Z,10.09
2023-04-01T01:00:42.392Z,10.09
2023-04-01T01:00:52.453Z,9.02
2023-04-01T01:01:53.057Z,10.11
2023-04-01T01:02:53.617Z,10.11
2023-04-01T01:03:54.144Z,10.10
2023-04-01T01:04:54.655Z,10.10
2023-04-01T01:05:55.202Z,10.11
2023-04-01T01:06:55.750Z,10.11
2023-04-01T01:07:56.278Z,10.11
2023-04-01T01:08:56.899Z,10.11
2023-04-01T01:09:57.506Z,10.11
2023-04-01T01:10:57.966Z,10.11
2023-04-01T01:11:07.101Z,9.23
2023-04-01T01:12:07.437Z,10.09
2023-04-01T01:13:07.947Z,10.09
2023-04-01T01:14:08.897Z,10.09
2023-04-01T01:15:09.415Z,10.09
2023-04-01T01:16:09.994Z,10.09
2023-04-01T01:17:10.668Z,10.08
2023-04-01T01:18:11.223Z,10.08
2023-04-01T01:19:12.792Z,10.08
2023-04-01T01:20:22.982Z,10.08
2023-04-01T01:21:12.787Z,10.07
2023-04-01T01:22:13.284Z,10.07
2023-04-01T01:22:21.867Z,9.43
2023-04-01T01:23:22.540Z,10.03
2023-04-01T01:24:23.203Z,10.03
2023-04-01T01:25:23.763Z,10.03
2023-04-01T01:26:24.264Z,10.03
2023-04-01T01:27:24.759Z,10.03
2023-04-01T01:28:25.417Z,10.03
2023-04-01T01:29:26.306Z,10.03
2023-04-01T01:30:26.894Z,10.03
2023-04-01T01:31:27.487Z,10.03
2023-04-01T01:32:28.268Z,10.03
2023-04-01T01:32:39.986Z,8.66
2023-04-01T01:33:40.540Z,9.99
2023-04-01T01:34:41.112Z,9.99
2023-04-01T01:35:41.982Z,9.99
2023-04-01T01:36:42.549Z,9.98
2023-04-01T01:37:43.175Z,9.98
2023-04-01T01:38:43.826Z,9.98
2023-04-01T01:39:44.385Z,9.98
2023-04-01T01:40:45.015Z,9.98
2023-04-01T01:41:45.608Z,9.98
2023-04-01T01:42:46.314Z,9.98
2023-04-01T01:42:54.937Z,9.53
2023-04-01T01:43:55.559Z,10.01
2023-04-01T01:44:56.123Z,10.00
2023-04-01T01:45:56.889Z,10.00
2023-04-01T01:46:57.359Z,10.00
2023-04-01T01:47:57.970Z,10.00
2023-04-01T01:48:58.601Z,10.00
2023-04-01T01:49:59.282Z,10.00
2023-04-01T01:50:59.887Z,10.00
2023-04-01T01:52:00.444Z,10.00
2023-04-01T01:53:00.988Z,10.00
2023-04-01T01:54:01.660Z,10.00
2023-04-01T01:54:10.331Z,9.49
2023-04-01T01:55:10.896Z,9.95
2023-04-01T01:56:11.612Z,9.95
2023-04-01T01:57:12.234Z,9.95
2023-04-01T01:58:12.759Z,9.95
2023-04-01T01:59:13.379Z,9.95
2023-04-01T02:00:13.954Z,9.95
2023-04-01T02:01:14.596Z,9.95
2023-04-01T02:02:15.322Z,9.94
2023-04-01T02:03:15.935Z,9.94
2023-04-01T02:04:16.670Z,9.94
2023-04-01T02:05:17.230Z,9.94
2023-04-01T02:05:25.868Z,9.43
2023-04-01T02:06:26.451Z,9.93
2023-04-01T02:07:27.002Z,9.93
2023-04-01T02:08:27.504Z,9.93
2023-04-01T02:09:28.111Z,9.93
2023-04-01T02:10:28.669Z,9.93
2023-04-01T02:11:29.266Z,9.92
2023-04-01T02:12:29.810Z,9.92
2023-04-01T02:13:30.333Z,9.91
2023-04-01T02:14:31.016Z,9.91
2023-04-01T02:15:31.903Z,9.91
2023-04-01T02:16:32.236Z,9.90
2023-04-01T02:16:40.791Z,8.72
2023-04-01T02:17:41.791Z,9.85
2023-04-01T02:18:42.376Z,9.85
2023-04-01T02:19:43.012Z,9.85
2023-04-01T02:20:43.560Z,9.85
2023-04-01T02:21:44.207Z,9.84
2023-04-01T02:22:44.774Z,9.84
2023-04-01T02:23:45.398Z,9.84
2023-04-01T02:24:45.996Z,9.84
2023-04-01T02:25:46.584Z,9.84
2023-04-01T02:26:47.304Z,9.84
2023-04-01T02:27:47.891Z,9.83
2023-04-01T02:27:56.525Z,9.32
2023-04-01T02:28:57.146Z,9.83
2023-04-01T02:29:57.754Z,9.83
2023-04-01T02:30:58.440Z,9.82
2023-04-01T02:31:58.484Z,9.82
2023-04-01T02:32:59.134Z,9.82
2023-04-01T02:33:59.606Z,9.81
2023-04-01T02:35:00.220Z,9.81
2023-04-01T02:36:01.079Z,9.81
2023-04-01T02:37:01.845Z,9.81
2023-04-01T02:38:02.611Z,9.81
2023-04-01T02:39:03.387Z,9.80
2023-04-01T02:40:04.190Z,9.80
2023-04-01T02:40:12.814Z,9.08
2023-04-01T02:41:13.592Z,9.76
2023-04-01T02:42:14.405Z,9.76
2023-04-01T02:43:15.030Z,9.76
2023-04-01T02:44:15.595Z,9.77
2023-04-01T02:45:16.240Z,9.77
2023-04-01T02:46:16.833Z,9.77
2023-04-01T02:47:17.717Z,9.77
2023-04-01T02:48:18.357Z,9.77
2023-04-01T02:49:18.880Z,9.77
2023-04-01T02:50:19.561Z,9.77
2023-04-01T02:51:20.139Z,9.77
2023-04-01T02:51:31.095Z,9.32
2023-04-01T02:52:30.143Z,9.76
2023-04-01T02:53:30.121Z,9.76
2023-04-01T02:54:30.678Z,9.76
2023-04-01T02:55:31.777Z,9.76
2023-04-01T02:56:31.858Z,9.76
2023-04-01T02:57:32.604Z,9.76
2023-04-01T02:58:32.964Z,9.76
2023-04-01T02:59:33.507Z,9.76
2023-04-01T03:00:33.585Z,9.76
2023-04-01T03:01:34.458Z,9.75
2023-04-01T03:02:35.054Z,9.75
2023-04-01T03:02:43.581Z,8.88
2023-04-01T03:03:44.249Z,9.70
2023-04-01T03:04:44.879Z,9.70
2023-04-01T03:05:45.516Z,9.70
2023-04-01T03:06:46.243Z,9.70
2023-04-01T03:07:46.661Z,9.70
2023-04-01T03:08:47.201Z,9.71
2023-04-01T03:09:47.736Z,9.71
2023-04-01T03:10:48.001Z,9.71
2023-04-01T03:11:49.004Z,9.71
2023-04-01T03:12:49.565Z,9.72
2023-04-01T03:13:50.060Z,9.72
2023-04-01T03:13:58.763Z,9.63
2023-04-01T03:14:59.381Z,9.64
2023-04-01T03:16:00.174Z,9.65
2023-04-01T03:17:00.474Z,9.65
2023-04-01T03:18:01.004Z,9.66
2023-04-01T03:19:01.705Z,9.67
2023-04-01T03:20:02.389Z,9.67
2023-04-01T03:21:03.133Z,9.68
2023-04-01T03:22:03.701Z,9.68
2023-04-01T03:23:04.260Z,9.68
2023-04-01T03:24:05.003Z,9.69
2023-04-01T03:24:13.663Z,9.69
2023-04-01T03:25:14.344Z,9.69
2023-04-01T03:26:14.970Z,9.69
2023-04-01T03:27:15.579Z,9.70
2023-04-01T03:28:16.166Z,9.70
2023-04-01T03:29:16.757Z,9.70
2023-04-01T03:30:17.366Z,9.70
2023-04-01T03:31:18.112Z,9.70
2023-04-01T03:32:18.588Z,9.70
2023-04-01T03:33:19.171Z,9.71
2023-04-01T03:34:19.735Z,9.71
2023-04-01T03:35:20.300Z,9.71
2023-04-01T03:35:28.976Z,9.71
2023-04-01T03:36:29.814Z,9.71
2023-04-01T03:37:30.475Z,9.71
2023-04-01T03:38:31.170Z,9.72
2023-04-01T03:39:31.823Z,9.72
2023-04-01T03:40:32.561Z,9.72
2023-04-01T03:41:33.316Z,9.72
2023-04-01T03:42:34.244Z,9.72
2023-04-01T03:43:34.866Z,9.72
2023-04-01T03:44:35.345Z,9.72
2023-04-01T03:45:35.870Z,9.72
2023-04-01T03:45:45.267Z,9.72
2023-04-01T03:46:45.862Z,9.72
2023-04-01T03:47:46.590Z,9.72
2023-04-01T03:48:47.291Z,9.72
2023-04-01T03:49:48.059Z,9.72
2023-04-01T03:50:48.341Z,9.72
2023-04-01T03:51:49.047Z,9.72
2023-04-01T03:52:49.671Z,9.72
2023-04-01T03:53:50.199Z,9.72
2023-04-01T03:54:50.793Z,9.72
2023-04-01T03:55:51.399Z,9.72
2023-04-01T03:56:52.063Z,9.72
2023-04-01T03:57:00.711Z,9.72
2023-04-01T03:58:01.381Z,9.72
2023-04-01T03:59:02.155Z,9.72
2023-04-01T04:00:02.830Z,9.72
2023-04-01T04:01:03.506Z,9.72
2023-04-01T04:02:04.132Z,9.72
2023-04-01T04:03:04.881Z,9.72
2023-04-01T04:04:05.425Z,9.72
2023-04-01T04:05:06.058Z,9.72
2023-04-01T04:06:06.276Z,9.72
2023-04-01T04:07:06.964Z,9.72
2023-04-01T04:07:15.629Z,9.71
2023-04-01T04:08:16.358Z,9.71
2023-04-01T04:09:17.124Z,9.71
2023-04-01T04:10:17.661Z,9.71
2023-04-01T04:11:18.316Z,9.71
2023-04-01T04:12:19.124Z,9.71
2023-04-01T04:13:19.250Z,9.71
2023-04-01T04:14:19.959Z,9.70
2023-04-01T04:15:20.507Z,9.70
2023-04-01T04:16:21.166Z,9.70
2023-04-01T04:17:21.780Z,9.69
2023-04-01T04:18:22.618Z,9.69
2023-04-01T04:18:31.231Z,9.69
2023-04-01T04:19:31.924Z,9.68
2023-04-01T04:20:32.541Z,9.68
2023-04-01T04:21:33.560Z,9.68
2023-04-01T04:22:34.448Z,9.67
2023-04-01T04:23:34.946Z,9.67
2023-04-01T04:24:35.627Z,9.67
2023-04-01T04:25:35.880Z,9.67
2023-04-01T04:26:36.566Z,9.66
2023-04-01T04:27:36.826Z,9.66
2023-04-01T04:28:37.332Z,9.66
2023-04-01T04:28:47.040Z,9.66
2023-04-01T04:29:47.060Z,9.66
2023-04-01T04:30:47.791Z,9.65
2023-04-01T04:31:48.431Z,9.66
2023-04-01T04:32:49.032Z,9.66
2023-04-01T04:33:49.717Z,9.66
2023-04-01T04:34:50.285Z,9.66
2023-04-01T04:35:50.839Z,9.66
2023-04-01T04:36:51.402Z,9.66
2023-04-01T04:37:51.997Z,9.66
2023-04-01T04:38:52.496Z,9.66
2023-04-01T04:39:53.134Z,9.66
2023-04-01T04:40:04.742Z,9.56
2023-04-01T04:41:05.466Z,9.57
2023-04-01T04:42:06.031Z,9.57
2023-04-01T04:43:06.993Z,9.58
2023-04-01T04:44:07.482Z,9.59
2023-04-01T04:45:08.000Z,9.59
2023-04-01T04:46:08.340Z,9.60
2023-04-01T04:47:08.987Z,9.60
2023-04-01T04:48:09.749Z,9.61
2023-04-01T04:49:10.197Z,9.61
2023-04-01T04:50:10.965Z,9.62
2023-04-01T04:51:11.692Z,9.62
2023-04-01T04:51:22.340Z,7.39
2023-04-01T04:52:22.475Z,9.64
2023-04-01T04:53:22.840Z,9.64
2023-04-01T04:54:23.316Z,9.64
2023-04-01T04:55:23.816Z,9.64
2023-04-01T04:56:24.433Z,9.65
2023-04-01T04:57:25.377Z,9.65
2023-04-01T04:58:25.996Z,9.65
2023-04-01T04:59:26.366Z,9.65
2023-04-01T05:00:27.188Z,9.65
2023-04-01T05:01:27.899Z,9.66
2023-04-01T05:02:28.720Z,9.66
2023-04-01T05:02:40.506Z,9.44
2023-04-01T05:03:40.502Z,9.45
2023-04-01T05:04:40.504Z,9.46
2023-04-01T05:05:41.189Z,9.47
2023-04-01T05:06:42.713Z,9.48
2023-04-01T05:07:42.436Z,9.49
2023-04-01T05:08:43.193Z,9.50
2023-04-01T05:09:44.144Z,9.51
2023-04-01T05:10:44.822Z,9.51
2023-04-01T05:11:45.163Z,9.52
2023-04-01T05:12:45.750Z,9.52
2023-04-01T05:13:46.553Z,9.53
2023-04-01T05:13:55.222Z,9.46
2023-04-01T05:14:55.999Z,9.47
2023-04-01T05:15:56.320Z,9.47
2023-04-01T05:16:57.215Z,9.48
2023-04-01T05:17:58.048Z,9.48
2023-04-01T05:18:58.957Z,9.49
2023-04-01T05:19:59.636Z,9.49
2023-04-01T05:21:00.234Z,9.50
2023-04-01T05:22:32.407Z,9.51
2023-04-01T05:23:33.188Z,9.51
2023-04-01T05:24:33.214Z,9.51
2023-04-01T05:26:05.013Z,9.52
2023-04-01T05:27:05.783Z,9.52
2023-04-01T05:28:06.663Z,9.52
2023-04-01T05:29:07.572Z,9.53
2023-04-01T05:30:08.320Z,9.53
2023-04-01T05:31:09.311Z,9.53
2023-04-01T05:32:10.044Z,9.53
2023-04-01T05:33:11.636Z,9.53
2023-04-01T05:34:11.543Z,9.53
2023-04-01T05:35:11.910Z,9.52
2023-04-01T05:36:12.423Z,9.52
2023-04-01T05:37:12.949Z,9.52
2023-04-01T05:37:22.107Z,9.52
2023-04-01T05:38:22.593Z,9.53
2023-04-01T05:39:23.189Z,9.53
2023-04-01T05:40:24.013Z,9.53
2023-04-01T05:41:24.860Z,9.53
2023-04-01T05:42:25.421Z,9.53
2023-04-01T05:43:26.010Z,9.53
2023-04-01T05:44:26.528Z,9.52
2023-04-01T05:45:26.624Z,9.52
2023-04-01T05:46:27.444Z,9.52
2023-04-01T05:47:27.971Z,9.52
2023-04-01T05:48:28.577Z,9.52
2023-04-01T05:49:29.133Z,9.52
2023-04-01T05:50:29.718Z,9.52
2023-04-01T05:50:38.328Z,8.53
2023-04-01T05:51:38.958Z,9.55
2023-04-01T05:52:39.111Z,9.55
2023-04-01T05:53:39.680Z,9.56
2023-04-01T05:54:40.419Z,9.56
2023-04-01T05:55:41.094Z,9.56
2023-04-01T05:56:41.637Z,9.56
2023-04-01T05:57:42.311Z,9.56
2023-04-01T05:58:42.814Z,9.57
2023-04-01T05:59:43.709Z,9.57
2023-04-01T06:00:44.402Z,9.58
2023-04-01T06:01:05.803Z,8.47
2023-04-01T06:01:53.500Z,9.65
2023-04-01T06:02:54.382Z,9.65
2023-04-01T06:03:55.134Z,9.65
2023-04-01T06:04:55.623Z,9.64
2023-04-01T06:05:56.344Z,9.64
2023-04-01T06:06:56.961Z,9.64
2023-04-01T06:07:57.556Z,9.63
2023-04-01T06:08:58.396Z,9.63
2023-04-01T06:09:59.015Z,9.63
2023-04-01T06:10:59.739Z,9.63
2023-04-01T06:11:59.770Z,9.63
2023-04-01T06:12:08.434Z,8.43
2023-04-01T06:13:09.115Z,9.65
2023-04-01T06:14:10.001Z,9.65
2023-04-01T06:15:10.621Z,9.65
2023-04-01T06:16:11.307Z,9.65
2023-04-01T06:17:11.716Z,9.66
2023-04-01T06:18:12.001Z,9.66
2023-04-01T06:19:12.615Z,9.66
2023-04-01T06:20:13.194Z,9.66
2023-04-01T06:21:21.102Z,9.66
2023-04-01T06:22:14.954Z,9.66
2023-04-01T06:22:57.310Z,9.13
2023-04-01T06:23:58.073Z,9.69
2023-04-01T06:24:59.082Z,9.69
2023-04-01T06:25:59.169Z,9.69
2023-04-01T06:26:59.931Z,9.69
2023-04-01T06:28:00.787Z,9.69
2023-04-01T06:29:01.448Z,9.69
2023-04-01T06:30:02.010Z,9.69
2023-04-01T06:31:02.449Z,9.69
2023-04-01T06:32:03.188Z,9.69
2023-04-01T06:33:03.780Z,9.69
2023-04-01T06:33:12.451Z,9.28
2023-04-01T06:34:13.448Z,9.78
2023-04-01T06:35:14.092Z,9.78
2023-04-01T06:36:14.795Z,9.78
2023-04-01T06:37:15.393Z,9.78
2023-04-01T06:38:16.029Z,9.78
2023-04-01T06:39:16.709Z,9.78
2023-04-01T06:40:17.390Z,9.78
2023-04-01T06:41:17.905Z,9.78
2023-04-01T06:42:18.466Z,9.78
2023-04-01T06:43:19.223Z,9.79
2023-04-01T06:43:27.675Z,8.71
2023-04-01T06:44:28.333Z,9.86
2023-04-01T06:45:28.906Z,9.86
2023-04-01T06:46:29.607Z,9.86
2023-04-01T06:47:30.270Z,9.86
2023-04-01T06:48:30.784Z,9.86
2023-04-01T06:49:31.349Z,9.86
2023-04-01T06:50:34.629Z,9.86
2023-04-01T06:51:32.174Z,9.87
2023-04-01T06:52:33.092Z,9.87
2023-04-01T06:53:33.669Z,9.88
2023-04-01T06:53:42.349Z,9.22
2023-04-01T06:54:43.102Z,9.92
2023-04-01T06:55:43.650Z,9.92
2023-04-01T06:56:44.335Z,9.93
2023-04-01T06:57:45.078Z,9.93
2023-04-01T06:58:45.643Z,9.93
2023-04-01T06:59:46.202Z,9.93
2023-04-01T07:00:46.767Z,9.93
2023-04-01T07:01:47.638Z,9.93
2023-04-01T07:02:47.729Z,9.93
2023-04-01T07:03:48.402Z,9.93
2023-04-01T07:03:57.090Z,9.39
2023-04-01T07:04:57.829Z,9.98
2023-04-01T07:05:58.629Z,9.98
2023-04-01T07:06:59.335Z,9.97
2023-04-01T07:08:00.140Z,9.97
2023-04-01T07:09:01.510Z,9.97
2023-04-01T07:10:01.370Z,9.98
2023-04-01T07:11:01.884Z,9.98
2023-04-01T07:12:02.412Z,9.98
2023-04-01T07:13:03.201Z,9.98
2023-04-01T07:14:03.839Z,9.98
2023-04-01T07:15:04.580Z,9.98
2023-04-01T07:15:13.283Z,9.31
2023-04-01T07:16:13.724Z,10.02
2023-04-01T07:17:14.491Z,10.02
2023-04-01T07:18:15.623Z,10.02
2023-04-01T07:19:16.306Z,10.02
2023-04-01T07:20:16.849Z,10.02
2023-04-01T07:21:17.555Z,10.02
2023-04-01T07:22:18.025Z,10.02
2023-04-01T07:23:18.645Z,10.03
2023-04-01T07:24:19.182Z,10.03
2023-04-01T07:25:19.970Z,10.03
2023-04-01T07:26:20.577Z,10.04
2023-04-01T07:26:29.214Z,9.75
2023-04-01T07:27:29.250Z,10.17
2023-04-01T07:28:30.046Z,10.17
2023-04-01T07:29:30.706Z,10.17
2023-04-01T07:30:31.234Z,10.17
2023-04-01T07:31:31.614Z,10.16
2023-04-01T07:32:31.754Z,10.17
2023-04-01T07:33:32.125Z,10.17
2023-04-01T07:34:32.766Z,10.17
2023-04-01T07:35:33.451Z,10.17
2023-04-01T07:36:33.891Z,10.17
2023-04-01T07:36:42.569Z,9.65
2023-04-01T07:37:43.236Z,10.22
2023-04-01T07:38:44.120Z,10.22
2023-04-01T07:39:44.788Z,10.22
2023-04-01T07:40:45.501Z,10.22
2023-04-01T07:41:46.306Z,10.22
2023-04-01T07:42:46.899Z,10.22
2023-04-01T07:43:47.240Z,10.23
2023-04-01T07:44:47.912Z,10.23
2023-04-01T07:45:48.799Z,10.23
2023-04-01T07:46:48.824Z,10.24
2023-04-01T07:46:58.030Z,9.02
2023-04-01T07:47:58.801Z,10.32
2023-04-01T07:48:58.920Z,10.32
2023-04-01T07:49:59.712Z,10.32
2023-04-01T07:51:00.449Z,10.32
2023-04-01T07:52:01.045Z,10.32
2023-04-01T07:53:01.622Z,10.33
2023-04-01T07:54:02.237Z,10.33
2023-04-01T07:55:02.820Z,10.33
2023-04-01T07:56:03.450Z,10.34
2023-04-01T07:57:03.973Z,10.34
2023-04-01T07:58:04.595Z,10.34
2023-04-01T07:58:13.204Z,9.90
2023-04-01T07:59:13.405Z,10.46
2023-04-01T08:00:14.166Z,10.46
2023-04-01T08:01:14.889Z,10.46
2023-04-01T08:02:15.827Z,10.46
2023-04-01T08:03:16.466Z,10.46
2023-04-01T08:04:17.088Z,10.46
2023-04-01T08:05:18.041Z,10.47
2023-04-01T08:06:18.651Z,10.47
2023-04-01T08:07:19.300Z,10.48
2023-04-01T08:08:19.846Z,10.48
2023-04-01T08:08:28.484Z,9.88
2023-04-01T08:09:29.219Z,10.59
2023-04-01T08:10:29.914Z,10.59
2023-04-01T08:11:30.414Z,10.59
2023-04-01T08:12:30.952Z,10.59
2023-04-01T08:13:31.587Z,10.59
2023-04-01T08:14:32.377Z,10.59
2023-04-01T08:15:33.179Z,10.59
2023-04-01T08:16:33.679Z,10.60
2023-04-01T08:17:34.187Z,10.60
2023-04-01T08:18:34.729Z,10.61
2023-04-01T08:18:43.371Z,9.34
2023-04-01T08:19:44.175Z,10.67
2023-04-01T08:20:44.939Z,10.67
2023-04-01T08:21:45.724Z,10.67
2023-04-01T08:22:46.286Z,10.68
2023-04-01T08:23:46.910Z,10.69
2023-04-01T08:24:48.444Z,10.69
2023-04-01T08:25:47.877Z,10.71
2023-04-01T08:26:48.742Z,10.72
2023-04-01T08:27:49.345Z,10.73
2023-04-01T08:28:49.907Z,10.74
2023-04-01T08:28:58.536Z,9.65
2023-04-01T08:29:58.808Z,10.91
2023-04-01T08:30:59.677Z,10.91
2023-04-01T08:32:00.484Z,10.92
2023-04-01T08:33:01.166Z,10.93
2023-04-01T08:34:01.707Z,10.94
2023-04-01T08:35:02.398Z,10.95
2023-04-01T08:36:03.107Z,10.96
2023-04-01T08:37:03.569Z,10.97
2023-04-01T08:38:04.172Z,10.98
2023-04-01T08:39:04.891Z,10.99
2023-04-01T08:39:14.029Z,9.38
2023-04-01T08:40:14.812Z,11.14
2023-04-01T08:41:15.493Z,11.14
2023-04-01T08:42:16.115Z,11.14
2023-04-01T08:43:16.553Z,11.13
2023-04-01T08:44:17.098Z,11.12
2023-04-01T08:45:17.724Z,11.12
2023-04-01T08:46:18.432Z,11.11
2023-04-01T08:47:18.971Z,11.10
2023-04-01T08:48:19.561Z,11.10
2023-04-01T08:49:20.104Z,11.09
2023-04-01T08:50:20.881Z,11.09
2023-04-01T08:50:29.460Z,9.82
2023-04-01T08:51:30.222Z,11.08
2023-04-01T08:52:30.915Z,11.08
2023-04-01T08:53:31.712Z,11.08
2023-04-01T08:54:32.443Z,11.08
2023-04-01T08:55:32.831Z,11.08
2023-04-01T08:56:33.176Z,11.08
2023-04-01T08:57:34.196Z,11.08
2023-04-01T08:58:34.704Z,11.09
2023-04-01T08:59:35.404Z,11.09
2023-04-01T09:00:36.077Z,11.09
2023-04-01T09:01:36.695Z,11.09
2023-04-01T09:01:45.885Z,10.22
2023-04-01T09:02:46.674Z,11.13
2023-04-01T09:03:47.636Z,11.12
2023-04-01T09:04:48.319Z,11.12
2023-04-01T09:05:49.038Z,11.12
2023-04-01T09:06:49.677Z,11.12
2023-04-01T09:07:50.224Z,11.11
2023-04-01T09:08:50.833Z,11.11
2023-04-01T09:09:51.478Z,11.11
2023-04-01T09:10:52.109Z,11.10
2023-04-01T09:11:53.210Z,11.09
2023-04-01T09:12:53.365Z,11.08
2023-04-01T09:13:54.017Z,11.07
2023-04-01T09:14:04.235Z,10.42
2023-04-01T09:15:04.901Z,10.92
2023-04-01T09:16:05.530Z,10.92
2023-04-01T09:17:06.231Z,10.93
2023-04-01T09:18:06.822Z,10.93
2023-04-01T09:19:08.980Z,10.93
2023-04-01T09:20:07.863Z,10.94
2023-04-01T09:21:08.461Z,10.94
2023-04-01T09:22:09.094Z,10.94
2023-04-01T09:23:09.533Z,10.94
2023-04-01T09:24:10.094Z,10.94
2023-04-01T09:24:19.248Z,10.60
2023-04-01T09:25:20.066Z,10.98
2023-04-01T09:26:20.776Z,10.98
2023-04-01T09:27:21.312Z,10.98
2023-04-01T09:28:21.937Z,10.98
2023-04-01T09:29:22.476Z,10.99
2023-04-01T09:30:23.054Z,11.00
2023-04-01T09:31:23.737Z,11.00
2023-04-01T09:32:24.255Z,11.01
2023-04-01T09:33:24.727Z,11.02
2023-04-01T09:34:25.301Z,11.04
2023-04-01T09:35:25.950Z,11.06
2023-04-01T09:35:34.857Z,10.70
2023-04-01T09:36:35.296Z,11.25
2023-04-01T09:37:36.140Z,11.26
2023-04-01T09:38:36.733Z,11.26
2023-04-01T09:39:37.441Z,11.27
2023-04-01T09:40:38.044Z,11.28
2023-04-01T09:41:38.626Z,11.30
2023-04-01T09:42:39.238Z,11.31
2023-04-01T09:43:40.113Z,11.32
2023-04-01T09:44:41.847Z,11.34
2023-04-01T09:45:41.165Z,11.35
2023-04-01T09:46:41.957Z,11.38
2023-04-01T09:46:52.203Z,11.36
2023-04-01T09:47:53.431Z,11.61
2023-04-01T09:48:53.857Z,11.61
2023-04-01T09:49:54.385Z,11.61
2023-04-01T09:50:54.495Z,11.61
2023-04-01T09:51:55.100Z,11.61
2023-04-01T09:52:55.679Z,11.61
2023-04-01T09:53:56.320Z,11.61
2023-04-01T09:54:57.004Z,11.60
2023-04-01T09:55:57.666Z,11.59
2023-04-01T09:56:58.251Z,11.59
2023-04-01T09:57:58.804Z,11.58
2023-04-01T09:58:07.408Z,10.35
2023-04-01T09:59:07.436Z,11.38
2023-04-01T10:00:07.974Z,11.38
2023-04-01T10:01:08.476Z,11.38
2023-04-01T10:02:09.103Z,11.38
2023-04-01T10:03:09.774Z,11.37
2023-04-01T10:04:10.254Z,11.36
2023-04-01T10:05:10.995Z,11.35
2023-04-01T10:06:11.531Z,11.34
2023-04-01T10:07:12.077Z,11.34
2023-04-01T10:08:12.642Z,11.33
2023-04-01T10:08:22.267Z,9.97
2023-04-01T10:09:22.974Z,11.20
2023-04-01T10:10:23.653Z,11.19
2023-04-01T10:11:24.193Z,11.19
2023-04-01T10:12:24.817Z,11.19
2023-04-01T10:13:25.466Z,11.19
2023-04-01T10:14:25.921Z,11.19
2023-04-01T10:15:26.465Z,11.19
2023-04-01T10:16:26.995Z,11.20
2023-04-01T10:17:27.818Z,11.19
2023-04-01T10:18:28.336Z,11.19
2023-04-01T10:19:28.933Z,11.19
2023-04-01T10:19:37.602Z,10.74
2023-04-01T10:20:38.280Z,11.20
2023-04-01T10:21:38.967Z,11.20
2023-04-01T10:22:39.809Z,11.20
2023-04-01T10:23:43.460Z,11.20
2023-04-01T10:24:41.046Z,11.20
2023-04-01T10:25:40.712Z,11.20
2023-04-01T10:26:41.299Z,11.21
2023-04-01T10:27:41.878Z,11.21
2023-04-01T10:28:42.434Z,11.22
2023-04-01T10:29:43.012Z,11.23
2023-04-01T10:30:43.586Z,11.23
2023-04-01T10:30:57.016Z,11.10
2023-04-01T10:32:48.796Z,11.36
2023-04-01T10:34:31.261Z,11.36
2023-04-01T10:35:32.443Z,11.36
2023-04-01T10:39:53.495Z,11.36
2023-04-01T10:44:24.400Z,11.35
2023-04-01T10:48:41.884Z,11.35
2023-04-01T10:49:32.593Z,11.34
2023-04-01T10:53:54.239Z,11.32
2023-04-01T10:56:07.376Z,11.31
2023-04-01T11:00:28.840Z,11.30
2023-04-01T11:01:29.717Z,11.31
2023-04-01T11:02:30.579Z,11.33
2023-04-01T11:03:31.350Z,11.35
2023-04-01T11:04:32.060Z,11.37
2023-04-01T11:05:33.114Z,11.40
2023-04-01T11:06:33.545Z,11.43
2023-04-01T11:07:33.611Z,11.46
2023-04-01T11:08:26.053Z,10.37
2023-04-01T11:12:36.296Z,12.11
2023-04-01T11:13:39.481Z,12.11
2023-04-01T11:14:45.050Z,12.12
2023-04-01T11:19:22.609Z,12.12
2023-04-01T11:22:04.316Z,12.13
2023-04-01T11:22:06.476Z,12.13
2023-04-01T11:23:07.339Z,12.12
2023-04-01T11:24:07.903Z,12.12
2023-04-01T11:25:10.177Z,12.12
2023-04-01T11:29:29.211Z,12.12
2023-04-01T11:33:53.978Z,12.12
2023-04-01T11:35:44.431Z,12.10
2023-04-01T11:37:09.079Z,12.10
2023-04-01T11:38:13.951Z,12.00
2023-04-01T11:47:46.765Z,11.98
2023-04-01T11:52:11.594Z,11.98
2023-04-01T11:56:24.445Z,11.99
2023-04-01T12:00:56.031Z,12.03
2023-04-01T12:01:54.149Z,12.05
2023-04-01T12:02:57.135Z,12.07
2023-04-01T12:03:55.820Z,12.09
2023-04-01T12:04:56.032Z,12.11
2023-04-01T12:05:56.640Z,12.12
2023-04-01T12:06:57.250Z,12.14
2023-04-01T12:08:35.497Z,12.04
2023-04-01T12:12:07.792Z,12.05
2023-04-01T12:16:27.833Z,12.07
2023-04-01T12:20:57.922Z,12.09
2023-04-01T12:23:31.850Z,12.12
2023-04-01T12:26:52.393Z,12.15
2023-04-01T12:31:14.965Z,12.18
2023-04-01T12:32:17.425Z,12.21
2023-04-01T12:33:15.738Z,12.24
2023-04-01T12:42:59.113Z,12.34
2023-04-01T12:45:00.603Z,12.40
2023-04-01T12:45:09.747Z,12.37
2023-04-01T12:46:03.627Z,12.42
2023-04-01T12:47:01.947Z,12.43
2023-04-01T12:48:02.994Z,12.44
2023-04-01T12:49:03.698Z,12.44
2023-04-01T12:50:35.501Z,10.78
2023-04-01T12:51:33.501Z,12.29
2023-04-01T12:52:34.133Z,12.30
2023-04-01T12:53:34.346Z,12.30
2023-04-01T12:54:35.000Z,12.30
2023-04-01T12:55:35.556Z,12.30
2023-04-01T12:56:36.420Z,12.29
2023-04-01T12:57:37.116Z,12.29
2023-04-01T12:58:37.202Z,12.29
2023-04-01T12:59:37.282Z,12.28
2023-04-01T13:00:37.920Z,12.27
2023-04-01T13:02:39.941Z,12.25
2023-04-01T13:03:09.893Z,10.09
2023-04-01T13:04:01.142Z,12.18
2023-04-01T13:05:02.007Z,12.18
2023-04-01T13:06:02.153Z,12.18
2023-04-01T13:07:02.248Z,12.18
2023-04-01T13:08:03.028Z,12.18
2023-04-01T13:09:03.793Z,12.19
2023-04-01T13:10:04.542Z,12.19
2023-04-01T13:11:05.125Z,12.19
2023-04-01T13:12:05.390Z,12.19
2023-04-01T13:16:48.899Z,12.20
2023-04-01T13:27:22.933Z,12.12
2023-04-01T13:28:20.374Z,12.12
2023-04-01T13:29:20.487Z,12.12
2023-04-01T13:30:21.219Z,12.13
2023-04-01T13:31:22.221Z,12.14
2023-04-01T13:32:33.289Z,12.16
2023-04-01T13:33:23.363Z,12.17
2023-04-01T13:34:24.200Z,12.18
2023-04-01T13:35:24.970Z,12.20
2023-04-01T13:36:25.680Z,12.23
2023-04-01T13:38:42.062Z,12.57
2023-04-01T13:42:59.993Z,12.57
2023-04-01T13:44:00.372Z,12.57
2023-04-01T13:45:00.975Z,12.58
2023-04-01T13:46:01.261Z,12.59
2023-04-01T13:47:11.181Z,12.60
2023-04-01T13:48:02.984Z,12.61
2023-04-01T13:49:06.177Z,12.62
2023-04-01T13:50:04.389Z,12.63
2023-04-01T13:51:04.570Z,12.64
2023-04-01T13:52:05.162Z,12.65
2023-04-01T13:53:54.823Z,12.75
2023-04-01T13:54:55.602Z,12.75
2023-04-01T14:01:56.590Z,12.74
2023-04-01T14:02:57.089Z,12.73
2023-04-01T14:11:51.830Z,12.73
2023-04-01T14:12:58.936Z,12.72
2023-04-01T14:13:59.692Z,12.71
2023-04-01T14:15:00.462Z,12.71
2023-04-01T14:16:01.327Z,12.71
2023-04-01T14:16:09.830Z,12.77
2023-04-01T14:17:10.129Z,12.75